createdAt,value
2019-05-17T00:00:29.172Z,71.60
2019-05-17T00:02:58.861Z,71.60
2019-05-17T00:05:28.685Z,71.50
2019-05-17T00:07:58.533Z,71.60
2019-05-17T00:10:28.678Z,71.60
2019-05-17T00:12:58.535Z,71.60
2019-05-17T00:15:28.362Z,71.60
2019-05-17T00:17:58.130Z,71.70
2019-05-17T00:20:27.909Z,71.60
2019-05-17T00:22:57.601Z,72.30
2019-05-17T00:25:27.488Z,71.60
2019-05-17T00:27:57.599Z,71.60
2019-05-17T00:30:27.503Z,72.50
2019-05-17T00:32:57.280Z,71.70
2019-05-17T00:35:27.049Z,71.60
2019-05-17T00:37:57.142Z,71.80
2019-05-17T00:40:27.136Z,71.80
2019-05-17T00:42:57.103Z,71.80
2019-05-17T00:45:27.071Z,71.80
2019-05-17T00:47:57.241Z,71.70
2019-05-17T00:50:28.394Z,71.80
2019-05-17T00:52:58.171Z,71.70
2019-05-17T00:55:28.001Z,71.80
2019-05-17T00:57:57.709Z,71.70
2019-05-17T01:00:27.933Z,71.70
2019-05-17T01:02:57.924Z,71.80
2019-05-17T01:05:27.695Z,71.70
2019-05-17T01:07:57.411Z,71.70
2019-05-17T01:10:28.236Z,71.70
2019-05-17T01:12:58.004Z,71.70
2019-05-17T01:15:27.854Z,71.70
2019-05-17T01:17:57.543Z,72.00
2019-05-17T01:20:28.250Z,71.70
2019-05-17T01:22:57.959Z,71.80
2019-05-17T01:25:27.818Z,71.80
2019-05-17T01:27:57.658Z,71.60
2019-05-17T01:30:27.385Z,71.60
2019-05-17T01:32:57.307Z,71.60
2019-05-17T01:35:27.106Z,71.90
2019-05-17T01:37:56.885Z,71.60
2019-05-17T01:40:26.642Z,72.30
2019-05-17T01:42:58.180Z,71.60
2019-05-17T01:45:29.716Z,71.60
2019-05-17T01:47:59.430Z,71.60
2019-05-17T01:50:29.299Z,71.40
2019-05-17T01:52:59.085Z,71.60
2019-05-17T01:55:28.882Z,71.50
2019-05-17T01:57:58.590Z,71.60
2019-05-17T02:00:28.478Z,71.50
2019-05-17T02:02:58.274Z,71.70
2019-05-17T02:05:28.107Z,71.60
2019-05-17T02:07:58.474Z,71.60
2019-05-17T02:10:28.293Z,72.00
2019-05-17T02:12:58.157Z,71.60
2019-05-17T02:15:27.961Z,71.70
2019-05-17T02:17:57.680Z,71.80
2019-05-17T02:20:27.624Z,71.80
2019-05-17T02:22:57.554Z,71.80
2019-05-17T02:25:27.367Z,71.80
2019-05-17T02:27:57.152Z,72.00
2019-05-17T02:30:26.944Z,71.90
2019-05-17T02:32:56.822Z,71.90
2019-05-17T02:35:26.721Z,71.90
2019-05-17T02:37:56.494Z,71.90
2019-05-17T02:40:26.313Z,71.80
2019-05-17T02:42:56.181Z,71.90
2019-05-17T02:45:26.054Z,71.90
2019-05-17T02:47:55.865Z,71.90
2019-05-17T02:50:25.739Z,71.80
2019-05-17T02:52:55.449Z,71.90
2019-05-17T02:55:25.251Z,71.70
2019-05-17T02:57:55.038Z,72.00
2019-05-17T03:00:24.997Z,71.90
2019-05-17T03:02:54.771Z,72.10
2019-05-17T03:05:24.650Z,72.00
2019-05-17T03:07:54.368Z,72.00
2019-05-17T03:10:28.783Z,71.90
2019-05-17T03:12:55.578Z,71.80
2019-05-17T03:15:25.383Z,71.70
2019-05-17T03:17:56.135Z,72.00
2019-05-17T03:20:26.010Z,71.70
2019-05-17T03:22:55.712Z,71.70
2019-05-17T03:25:25.519Z,71.80
2019-05-17T03:27:55.336Z,71.70
2019-05-17T03:30:26.187Z,71.70
2019-05-17T03:32:57.222Z,71.70
2019-05-17T03:35:29.012Z,71.60
2019-05-17T03:37:58.860Z,71.50
2019-05-17T03:40:56.520Z,71.60
2019-05-17T03:43:02.835Z,71.50
2019-05-17T03:45:33.936Z,71.60
2019-05-17T03:48:05.090Z,71.60
2019-05-17T03:50:35.084Z,71.60
2019-05-17T03:53:04.953Z,71.60
2019-05-17T03:55:35.013Z,71.60
2019-05-17T03:58:04.895Z,71.50
2019-05-17T04:00:35.547Z,71.50
2019-05-17T04:03:05.627Z,70.80
2019-05-17T04:05:36.309Z,71.70
2019-05-17T04:08:06.178Z,71.70
2019-05-17T04:10:35.949Z,72.00
2019-05-17T04:13:05.754Z,71.90
2019-05-17T04:15:35.534Z,72.00
2019-05-17T04:18:05.445Z,72.30
2019-05-17T04:20:35.242Z,72.40
2019-05-17T04:23:05.110Z,72.70
2019-05-17T04:25:38.631Z,72.80
2019-05-17T04:28:06.411Z,72.90
2019-05-17T04:30:36.194Z,73.10
2019-05-17T04:33:06.071Z,73.40
2019-05-17T04:35:35.855Z,73.70
2019-05-17T04:38:05.730Z,73.90
2019-05-17T04:40:35.519Z,74.10
2019-05-17T04:43:05.343Z,74.20
2019-05-17T04:45:36.098Z,73.90
2019-05-17T04:48:05.969Z,73.50
2019-05-17T04:50:35.826Z,73.60
2019-05-17T04:53:05.699Z,72.50
2019-05-17T04:55:35.532Z,71.90
2019-05-17T04:58:05.435Z,71.80
2019-05-17T05:00:35.198Z,71.60
2019-05-17T05:03:05.087Z,71.60
2019-05-17T05:05:34.948Z,71.60
2019-05-17T05:08:04.675Z,71.80
2019-05-17T05:10:38.285Z,71.40
2019-05-17T05:13:05.987Z,71.10
2019-05-17T05:15:44.691Z,70.80
2019-05-17T05:18:14.400Z,70.60
2019-05-17T05:20:45.095Z,70.50
2019-05-17T05:23:14.906Z,70.80
2019-05-17T05:25:44.693Z,71.10
2019-05-17T05:28:14.499Z,71.00
2019-05-17T05:30:44.355Z,70.90
2019-05-17T05:33:14.093Z,70.70
2019-05-17T05:35:43.798Z,69.40
2019-05-17T05:38:13.688Z,68.00
2019-05-17T05:40:44.265Z,66.40
2019-05-17T05:43:14.148Z,65.60
2019-05-17T05:45:43.934Z,64.90
2019-05-17T05:48:13.657Z,64.60
2019-05-17T05:50:43.849Z,64.90
2019-05-17T05:53:13.562Z,65.00
2019-05-17T05:55:43.482Z,65.60
2019-05-17T05:58:13.573Z,65.50
2019-05-17T06:00:43.298Z,65.60
2019-05-17T06:03:13.173Z,64.80
2019-05-17T06:05:43.046Z,64.60
2019-05-17T06:08:13.875Z,64.90
2019-05-17T06:10:43.669Z,65.20
2019-05-17T06:13:13.464Z,65.10
2019-05-17T06:15:43.332Z,65.30
2019-05-17T06:18:13.198Z,64.80
2019-05-17T06:20:43.079Z,65.10
2019-05-17T06:23:12.861Z,66.20
2019-05-17T06:25:43.746Z,66.30
2019-05-17T06:28:13.897Z,66.40
2019-05-17T06:30:43.659Z,65.90
2019-05-17T06:33:26.742Z,64.10
2019-05-17T06:35:44.879Z,63.60
2019-05-17T06:38:14.742Z,61.20
2019-05-17T06:40:44.498Z,59.60
2019-05-17T06:43:14.313Z,59.30
2019-05-17T06:45:44.029Z,57.80
2019-05-17T06:48:13.784Z,57.00
2019-05-17T06:50:43.686Z,55.50
2019-05-17T06:53:13.489Z,53.60
2019-05-17T06:55:43.217Z,52.70
2019-05-17T06:58:13.022Z,51.10
2019-05-17T07:00:42.838Z,49.50
2019-05-17T07:03:12.754Z,48.60
2019-05-17T07:05:44.177Z,47.40
2019-05-17T07:08:13.958Z,46.40
2019-05-17T07:10:43.835Z,46.00
2019-05-17T07:13:13.718Z,46.10
2019-05-17T07:15:47.585Z,46.30
2019-05-17T07:18:14.953Z,46.80
2019-05-17T07:20:44.773Z,47.50
2019-05-17T07:23:14.486Z,48.00
2019-05-17T07:25:44.277Z,48.50
2019-05-17T07:28:14.011Z,49.20
2019-05-17T07:30:43.751Z,49.90
2019-05-17T07:33:16.301Z,50.50
2019-05-17T07:35:46.020Z,50.90
2019-05-17T07:38:15.731Z,51.50
2019-05-17T07:40:45.521Z,51.60
2019-05-17T07:43:15.334Z,52.20
2019-05-17T07:45:45.207Z,52.80
2019-05-17T07:48:14.979Z,53.50
2019-05-17T07:50:45.002Z,54.20
2019-05-17T07:53:14.727Z,54.30
2019-05-17T07:55:44.599Z,54.60
2019-05-17T07:58:14.483Z,54.70
2019-05-17T08:00:44.287Z,55.20
2019-05-17T08:03:14.155Z,55.10
2019-05-17T08:05:43.862Z,55.80
2019-05-17T08:08:13.647Z,56.30
2019-05-17T08:10:43.534Z,56.90
2019-05-17T08:13:25.887Z,57.50
2019-05-17T08:15:44.741Z,57.60
2019-05-17T08:18:14.619Z,57.30
2019-05-17T08:20:44.327Z,57.20
2019-05-17T08:23:14.218Z,57.10
2019-05-17T08:25:52.739Z,57.40
2019-05-17T08:28:15.426Z,57.20
2019-05-17T08:30:46.267Z,57.10
2019-05-17T08:33:15.978Z,56.90
2019-05-17T08:35:45.681Z,56.90
2019-05-17T08:38:15.486Z,56.50
2019-05-17T08:40:45.279Z,56.30
2019-05-17T08:43:15.144Z,56.50
2019-05-17T08:45:44.865Z,56.60
2019-05-17T08:48:14.731Z,56.70
2019-05-17T08:50:44.506Z,56.60
2019-05-17T08:53:14.222Z,56.80
2019-05-17T08:55:43.938Z,56.90
2019-05-17T08:58:13.654Z,57.00
2019-05-17T09:00:43.363Z,57.10
2019-05-17T09:03:13.082Z,56.90
2019-05-17T09:05:42.787Z,56.90
2019-05-17T09:08:12.605Z,57.00
2019-05-17T09:10:42.321Z,57.30
2019-05-17T09:13:14.663Z,57.40
2019-05-17T09:15:43.509Z,57.60
2019-05-17T09:18:13.395Z,57.90
2019-05-17T09:20:43.598Z,58.30
2019-05-17T09:23:13.322Z,58.10
2019-05-17T09:25:43.237Z,58.20
2019-05-17T09:28:13.010Z,58.30
2019-05-17T09:30:42.801Z,58.40
2019-05-17T09:33:12.622Z,58.40
2019-05-17T09:35:42.427Z,58.50
2019-05-17T09:38:12.240Z,58.60
2019-05-17T09:40:41.943Z,58.80
2019-05-17T09:43:14.843Z,59.00
2019-05-17T09:45:43.335Z,59.00
2019-05-17T09:48:13.210Z,58.90
2019-05-17T09:50:42.909Z,58.90
2019-05-17T09:53:12.717Z,58.80
2019-05-17T09:55:42.500Z,58.60
2019-05-17T09:58:12.303Z,58.70
2019-05-17T10:00:42.159Z,59.20
2019-05-17T10:03:12.949Z,58.80
2019-05-17T10:05:42.646Z,58.50
2019-05-17T10:08:12.477Z,58.60
2019-05-17T10:10:42.176Z,58.80
2019-05-17T10:13:13.033Z,58.50
2019-05-17T10:15:42.737Z,58.50
2019-05-17T10:18:12.686Z,58.50
2019-05-17T10:20:42.482Z,58.40
2019-05-17T10:23:12.266Z,58.00
2019-05-17T10:25:42.063Z,57.80
2019-05-17T10:28:11.767Z,57.80
2019-05-17T10:30:41.643Z,58.00
2019-05-17T10:33:11.598Z,58.10
2019-05-17T10:35:41.393Z,58.00
2019-05-17T10:38:11.172Z,57.90
2019-05-17T10:40:41.271Z,57.50
2019-05-17T10:43:11.196Z,57.50
2019-05-17T10:45:41.034Z,57.30
2019-05-17T10:48:10.890Z,57.00
2019-05-17T10:50:40.954Z,57.10
2019-05-17T10:53:10.895Z,57.00
2019-05-17T10:55:40.793Z,57.10
2019-05-17T10:58:11.575Z,57.40
2019-05-17T11:00:41.751Z,57.40
2019-05-17T11:03:11.590Z,57.50
2019-05-17T11:05:41.455Z,57.70
2019-05-17T11:08:11.163Z,57.50
2019-05-17T11:10:40.958Z,57.70
2019-05-17T11:13:10.739Z,57.40
2019-05-17T11:15:40.546Z,57.30
2019-05-17T11:18:10.249Z,57.70
2019-05-17T11:20:39.975Z,57.90
2019-05-17T11:23:09.757Z,58.20
2019-05-17T11:25:44.968Z,58.20
2019-05-17T11:28:10.943Z,58.30
2019-05-17T11:30:40.746Z,58.20
2019-05-17T11:33:10.588Z,57.80
2019-05-17T11:35:40.466Z,57.80
2019-05-17T11:38:10.191Z,57.80
2019-05-17T11:40:40.021Z,57.60
2019-05-17T11:43:10.832Z,57.60
2019-05-17T11:45:40.627Z,57.70
2019-05-17T11:48:10.413Z,57.60
2019-05-17T11:50:40.213Z,57.60
2019-05-17T11:53:09.987Z,57.70
2019-05-17T11:55:39.825Z,57.70
2019-05-17T11:58:09.651Z,57.60
2019-05-17T12:00:39.522Z,57.50
2019-05-17T12:03:09.380Z,57.50
2019-05-17T12:05:39.741Z,57.80
2019-05-17T12:08:09.633Z,57.90
2019-05-17T12:10:39.659Z,58.00
2019-05-17T12:13:22.609Z,58.20
2019-05-17T12:15:52.327Z,57.90
2019-05-17T12:18:22.117Z,58.50
2019-05-17T12:20:51.894Z,58.70
2019-05-17T12:23:21.698Z,58.60
2019-05-17T12:25:52.958Z,58.60
2019-05-17T12:28:22.825Z,59.10
2019-05-17T12:30:52.538Z,59.40
2019-05-17T12:33:22.268Z,59.60
2019-05-17T12:35:51.980Z,59.60
2019-05-17T12:38:21.773Z,59.70
2019-05-17T12:40:51.646Z,59.40
2019-05-17T12:43:21.373Z,59.40
2019-05-17T12:46:00.067Z,59.30
2019-05-17T12:48:22.733Z,59.20
2019-05-17T12:50:52.511Z,59.20
2019-05-17T12:53:22.234Z,58.60
2019-05-17T12:55:51.947Z,58.70
2019-05-17T12:58:21.824Z,59.00
2019-05-17T13:00:51.681Z,59.30
2019-05-17T13:03:21.409Z,59.40
2019-05-17T13:05:51.109Z,59.60
2019-05-17T13:08:20.907Z,58.80
2019-05-17T13:10:50.613Z,58.40
2019-05-17T13:13:20.418Z,57.90
2019-05-17T13:15:50.122Z,57.70
2019-05-17T13:18:19.988Z,58.10
2019-05-17T13:20:49.797Z,57.20
2019-05-17T13:23:19.668Z,56.60
2019-05-17T13:25:49.385Z,56.60
2019-05-17T13:28:19.112Z,55.60
2019-05-17T13:30:48.885Z,55.90
2019-05-17T13:33:18.674Z,55.80
2019-05-17T13:35:48.449Z,55.10
2019-05-17T13:38:18.327Z,54.80
2019-05-17T13:40:48.174Z,54.60
2019-05-17T13:43:17.962Z,54.80
2019-05-17T13:45:47.734Z,54.60
2019-05-17T13:48:17.434Z,54.10
2019-05-17T13:50:51.429Z,53.70
2019-05-17T13:53:18.729Z,53.40
2019-05-17T13:55:48.567Z,53.50
2019-05-17T13:58:18.354Z,53.60
2019-05-17T14:00:48.228Z,53.80
2019-05-17T14:03:18.278Z,53.40
2019-05-17T14:05:48.162Z,53.10
2019-05-17T14:08:17.866Z,52.90
2019-05-17T14:10:47.742Z,52.60
2019-05-17T14:13:17.538Z,52.60
2019-05-17T14:15:47.416Z,52.50
2019-05-17T14:18:17.265Z,52.10
2019-05-17T14:20:47.057Z,52.20
2019-05-17T14:23:16.771Z,52.70
2019-05-17T14:25:46.494Z,53.40
2019-05-17T14:28:16.234Z,53.30
2019-05-17T14:30:46.013Z,52.80
2019-05-17T14:33:15.804Z,52.30
2019-05-17T14:35:45.550Z,52.40
2019-05-17T14:38:15.298Z,52.20
2019-05-17T14:41:05.561Z,52.40
2019-05-17T14:43:19.087Z,52.30
2019-05-17T14:45:48.976Z,52.00
2019-05-17T14:48:18.765Z,52.00
2019-05-17T14:50:48.650Z,52.10
2019-05-17T14:53:18.532Z,52.20
2019-05-17T14:55:48.355Z,52.50
2019-05-17T14:58:18.160Z,52.70
2019-05-17T15:00:47.890Z,52.40
2019-05-17T15:03:17.691Z,52.30
2019-05-17T15:05:47.430Z,52.00
2019-05-17T15:08:17.197Z,52.20
2019-05-17T15:10:46.992Z,52.50
2019-05-17T15:13:17.675Z,52.60
2019-05-17T15:15:47.813Z,53.20
2019-05-17T15:18:17.855Z,53.30
2019-05-17T15:20:47.658Z,53.20
2019-05-17T15:23:17.543Z,53.20
2019-05-17T15:25:47.350Z,53.70
2019-05-17T15:28:17.835Z,53.30
2019-05-17T15:30:47.712Z,53.20
2019-05-17T15:33:17.506Z,53.40
2019-05-17T15:35:47.239Z,53.50
2019-05-17T15:38:17.093Z,53.60
2019-05-17T15:40:46.910Z,53.80
2019-05-17T15:43:16.921Z,53.50
2019-05-17T15:45:46.823Z,53.30
2019-05-17T15:48:16.558Z,53.30
2019-05-17T15:50:46.432Z,53.40
2019-05-17T15:53:16.228Z,53.50
2019-05-17T15:55:46.017Z,53.40
2019-05-17T15:58:15.818Z,53.20
2019-05-17T16:00:45.532Z,52.90
2019-05-17T16:03:15.414Z,52.90
2019-05-17T16:05:45.282Z,52.70
2019-05-17T16:08:15.081Z,52.90
2019-05-17T16:10:45.122Z,53.10
2019-05-17T16:13:14.914Z,53.30
2019-05-17T16:15:44.647Z,53.40
2019-05-17T16:18:14.364Z,53.60
2019-05-17T16:20:44.135Z,53.80
2019-05-17T16:23:13.873Z,53.70
2019-05-17T16:25:43.656Z,53.90
2019-05-17T16:28:13.447Z,54.10
2019-05-17T16:30:43.174Z,54.20
2019-05-17T16:33:12.893Z,54.40
2019-05-17T16:35:42.610Z,54.50
2019-05-17T16:38:12.414Z,54.50
2019-05-17T16:40:43.181Z,54.50
2019-05-17T16:43:18.031Z,54.40
2019-05-17T16:45:44.418Z,54.60
2019-05-17T16:48:14.223Z,54.70
2019-05-17T16:50:44.982Z,54.70
2019-05-17T16:53:14.879Z,54.70
2019-05-17T16:55:44.721Z,54.70
2019-05-17T16:58:15.571Z,54.60
2019-05-17T17:00:45.423Z,54.70
2019-05-17T17:03:15.245Z,54.80
2019-05-17T17:05:45.038Z,54.80
2019-05-17T17:08:14.920Z,55.00
2019-05-17T17:10:44.774Z,55.00
2019-05-17T17:13:14.584Z,54.70
2019-05-17T17:15:44.369Z,54.70
2019-05-17T17:18:14.166Z,54.90
2019-05-17T17:20:44.311Z,54.90
2019-05-17T17:23:14.160Z,54.90
2019-05-17T17:25:44.021Z,55.00
2019-05-17T17:28:13.908Z,55.00
2019-05-17T17:30:43.770Z,55.10
2019-05-17T17:33:13.577Z,55.00
2019-05-17T17:35:44.333Z,54.90
2019-05-17T17:38:14.074Z,55.00
2019-05-17T17:40:43.932Z,54.90
2019-05-17T17:43:15.567Z,55.00
2019-05-17T17:45:45.431Z,55.00
2019-05-17T17:48:15.155Z,55.70
2019-05-17T17:50:45.285Z,55.10
2019-05-17T17:53:15.010Z,55.40
2019-05-17T17:55:45.786Z,55.40
2019-05-17T17:58:15.498Z,55.50
2019-05-17T18:00:45.452Z,55.50
2019-05-17T18:03:16.875Z,55.50
2019-05-17T18:05:46.745Z,55.70
2019-05-17T18:08:16.543Z,56.00
2019-05-17T18:10:46.765Z,55.80
2019-05-17T18:13:16.636Z,55.90
2019-05-17T18:15:46.502Z,55.90
2019-05-17T18:18:16.285Z,56.10
2019-05-17T18:20:46.167Z,56.20
2019-05-17T18:23:20.836Z,56.20
2019-05-17T18:25:48.582Z,56.40
2019-05-17T18:28:18.293Z,56.40
2019-05-17T18:30:48.196Z,56.50
2019-05-17T18:33:17.953Z,56.60
2019-05-17T18:35:47.764Z,56.70
2019-05-17T18:38:20.230Z,56.70
2019-05-17T18:40:50.122Z,56.70
2019-05-17T18:43:19.906Z,56.80
2019-05-17T18:45:49.730Z,56.90
2019-05-17T18:48:19.554Z,56.90
2019-05-17T18:50:49.442Z,56.90
2019-05-17T18:53:19.301Z,57.00
2019-05-17T18:55:49.100Z,57.00
2019-05-17T18:58:18.890Z,57.00
2019-05-17T19:00:48.818Z,57.20
2019-05-17T19:03:18.607Z,57.10
2019-05-17T19:05:48.401Z,57.20
2019-05-17T19:08:18.212Z,57.30
2019-05-17T19:10:48.088Z,57.30
2019-05-17T19:13:17.881Z,57.40
2019-05-17T19:15:47.685Z,57.40
2019-05-17T19:18:17.566Z,57.40
2019-05-17T19:20:47.425Z,57.40
2019-05-17T19:23:17.279Z,57.40
2019-05-17T19:25:47.099Z,57.50
2019-05-17T19:28:16.891Z,57.60
2019-05-17T19:30:46.746Z,57.60
2019-05-17T19:33:16.598Z,57.70
2019-05-17T19:35:46.438Z,57.80
2019-05-17T19:38:16.231Z,57.80
2019-05-17T19:40:45.958Z,57.80
2019-05-17T19:43:15.778Z,57.80
2019-05-17T19:45:45.562Z,58.00
2019-05-17T19:48:16.256Z,58.00
2019-05-17T19:50:46.051Z,58.00
2019-05-17T19:53:15.931Z,58.10
2019-05-17T19:55:45.714Z,58.20
2019-05-17T19:58:15.601Z,58.30
2019-05-17T20:00:45.466Z,58.40
2019-05-17T20:03:15.402Z,58.40
2019-05-17T20:05:45.191Z,58.40
2019-05-17T20:08:14.937Z,58.50
2019-05-17T20:10:44.742Z,58.60
2019-05-17T20:13:14.713Z,58.80
2019-05-17T20:15:44.654Z,58.80
2019-05-17T20:18:14.796Z,58.90
2019-05-17T20:20:47.529Z,59.10
2019-05-17T20:23:17.317Z,58.90
2019-05-17T20:25:48.064Z,59.00
2019-05-17T20:28:18.163Z,59.20
2019-05-17T20:30:47.966Z,59.30
2019-05-17T20:33:17.767Z,59.30
2019-05-17T20:35:47.549Z,59.40
2019-05-17T20:38:17.349Z,59.50
2019-05-17T20:40:47.142Z,59.70
2019-05-17T20:43:16.971Z,59.50
2019-05-17T20:45:46.752Z,59.60
2019-05-17T20:48:16.562Z,59.70
2019-05-17T20:50:46.343Z,59.70
2019-05-17T20:53:18.986Z,59.70
2019-05-17T20:55:47.641Z,59.80
2019-05-17T20:58:17.590Z,59.80
2019-05-17T21:00:47.440Z,59.80
2019-05-17T21:03:17.321Z,60.00
2019-05-17T21:05:47.042Z,59.80
2019-05-17T21:08:16.853Z,59.90
2019-05-17T21:10:46.560Z,60.00
2019-05-17T21:13:16.442Z,60.00
2019-05-17T21:15:48.176Z,60.00
2019-05-17T21:18:17.652Z,60.00
2019-05-17T21:20:47.526Z,60.10
2019-05-17T21:23:17.443Z,60.10
2019-05-17T21:25:47.260Z,60.70
2019-05-17T21:28:16.965Z,60.50
2019-05-17T21:30:46.906Z,60.50
2019-05-17T21:33:16.770Z,60.50
2019-05-17T21:35:46.755Z,60.50
2019-05-17T21:38:16.658Z,60.40
2019-05-17T21:40:49.229Z,60.90
2019-05-17T21:43:18.941Z,60.90
2019-05-17T21:46:02.747Z,60.90
2019-05-17T21:48:20.422Z,61.00
2019-05-17T21:50:50.154Z,61.20
2019-05-17T21:53:19.942Z,61.20
2019-05-17T21:55:50.717Z,61.40
2019-05-17T21:58:20.623Z,61.50
2019-05-17T22:01:11.194Z,61.60
2019-05-17T22:03:41.342Z,61.90
2019-05-17T22:06:11.143Z,61.80
2019-05-17T22:08:41.198Z,62.00
2019-05-17T22:11:12.003Z,62.10
2019-05-17T22:13:41.801Z,62.40
2019-05-17T22:16:19.550Z,62.40
2019-05-17T22:18:43.145Z,62.50
2019-05-17T22:21:13.020Z,62.60
2019-05-17T22:23:42.813Z,62.80
2019-05-17T22:26:12.546Z,63.00
2019-05-17T22:28:42.374Z,63.10
2019-05-17T22:31:12.106Z,63.10
2019-05-17T22:33:41.983Z,64.00
2019-05-17T22:36:11.891Z,63.30
2019-05-17T22:38:41.674Z,63.40
2019-05-17T22:41:11.551Z,63.50
2019-05-17T22:43:41.365Z,63.50
2019-05-17T22:46:12.086Z,63.70
2019-05-17T22:48:41.884Z,63.80
2019-05-17T22:51:11.613Z,64.00
2019-05-17T22:53:41.402Z,64.80
2019-05-17T22:56:11.132Z,64.10
2019-05-17T22:58:40.830Z,64.20
2019-05-17T23:01:10.620Z,64.30
2019-05-17T23:03:40.407Z,64.30
2019-05-17T23:06:10.216Z,64.40
2019-05-17T23:08:39.926Z,64.50
2019-05-17T23:11:09.646Z,64.50
2019-05-17T23:13:40.398Z,64.60
2019-05-17T23:16:12.087Z,64.80
2019-05-17T23:18:45.524Z,64.80
2019-05-17T23:21:15.258Z,64.90
2019-05-17T23:23:44.970Z,64.90
2019-05-17T23:26:14.707Z,65.90
2019-05-17T23:28:44.426Z,65.10
2019-05-17T23:31:14.141Z,65.10
2019-05-17T23:33:43.870Z,66.00
2019-05-17T23:36:13.695Z,65.20
2019-05-17T23:38:43.427Z,65.30
2019-05-17T23:41:13.132Z,65.50
2019-05-17T23:43:42.866Z,65.40
2019-05-17T23:46:12.649Z,65.70
2019-05-17T23:48:42.469Z,65.70
2019-05-17T23:51:12.254Z,65.70
2019-05-17T23:53:41.991Z,65.80
2019-05-17T23:56:11.698Z,66.10
2019-05-17T23:58:41.498Z,66.10
